PADQ

Kodiak Airport

Kodiak, Alaska, USA
PADQ 211734Z 2118/2218 11007KT P6SM SCT025 FM221200 11007KT P6SM BKN030 FM221400 10008KT 5SM BR BKN015 OVC030
Issued Valid From Valid To
Jul-21 @ 17:34 UTC
(6 hours ago)
Jul-21 @ 18:00 UTC
(5 hours ago)
Jul-22 @ 18:00 UTC
(in 19 hours)
Jul-21 @ 18:00 to Jul-22 @ 12:00
PADQ 211734Z 2118/2218 11007KT P6SM SCT025
Wind Visibility Clouds
110° at 7 knots Greater than 6 miles
  • Scattered at 2,500' AGL
From Jul-22 @ 12:00 to Jul-22 @ 14:00
FM221200 11007KT P6SM BKN030
Wind Visibility Clouds
110° at 7 knots Greater than 6 miles
  • Broken at 3,000' AGL
From Jul-22 @ 14:00 to Jul-22 @ 18:00
FM221400 10008KT 5SM BR BKN015 OVC030
Wind Visibility Clouds Conditions
100° at 8 knots 5 miles
  • Broken at 1,500' AGL
  • Overcast at 3,000' AGL
  • Mist
PADQ 211734Z 2118/2218 11007KT P6SM SCT025 FM221200 11007KT P6SM BKN030 FM221400 10008KT 5SM BR BKN015 OVC030
Issued Jul-21 @ 17:34 UTC
(6 hours ago)
Valid From Jul-21 @ 18:00 UTC
(5 hours ago)
Valid To Jul-22 @ 18:00 UTC
(in 19 hours)
Jul-21 @ 18:00 - Jul-22 @ 12:00
Wind Visibility
110° at 7 knots Greater than 6 miles
Clouds
  • Scattered at 2,500' AGL
From Jul-22 @ 12:00 - Jul-22 @ 14:00
Wind Visibility
110° at 7 knots Greater than 6 miles
Clouds
  • Broken at 3,000' AGL
From Jul-22 @ 14:00 - Jul-22 @ 18:00
Wind Visibility
100° at 8 knots 5 miles
Clouds
  • Broken at 1,500' AGL
  • Overcast at 3,000' AGL
Conditions
  • Mist